Overview Statistics Trail Chart Weather Telemetry Raw packets
 

This is the latest recevied weather packets stored in our database for station/object K6LOT-13. If no packets are shown the sender has not sent any weather packets the latest 10 day(s).

<< 87 88 89 90 91 >>
Time Temp. Humidity Pressure Rain* Wind** Luminosity Snow
1787857852 30.56° C 65% 1014 hPa 0 mm - - -
1787857543 30.56° C 64% 1014.1 hPa 0 mm - - -
1787857372 30.56° C 65% 1014.2 hPa 0 mm - - -
1787856926 30.56° C 65% 1014.4 hPa 0 mm - - -
1787856803 30.56° C 65% 1014.3 hPa 0 mm - - -
1787856011 30° C 66% 1014.5 hPa 0 mm - - -
1787855696 30° C 66% 1014.6 hPa 0 mm - - -
1787855539 30° C 66% 1014.6 hPa 0 mm - - -
1787855527 30° C 66% 1014.6 hPa 0 mm - - -
1787854779 30° C 66% 1014.6 hPa 0 mm - - -
1787854469 30° C 66% 1014.7 hPa 0 mm - - -
1787854162 30° C 66% 1014.8 hPa 0 mm - - -
1787853856 30.56° C 64% 1014.9 hPa 0 mm - - -
1787853245 31.11° C 61% 1014.8 hPa 0 mm - - -
1787852628 30.56° C 58% 1014.5 hPa 0 mm - - -
1787852016 30.56° C 57% 1014.4 hPa 0 mm - - -
1787851706 30.56° C 58% 1014.3 hPa 0 mm - - -
1787851399 30.56° C 59% 1014.2 hPa 0 mm - - -
1787851089 30° C 60% 1014 hPa 0 mm - - -
1787850172 28.89° C 64% 1013.3 hPa 0 mm - - -
1787850166 29.44° C 63% 1013.4 hPa 0 mm - - -
1787849550 28.33° C 65% 1013.3 hPa 0 mm - - -
1787849244 27.78° C 67% 1013.3 hPa 0 mm - - -
1787848942 27.78° C 66% 1013.4 hPa 0 mm - - -
1787848637 27.78° C 67% 1013.3 hPa 0 mm - - -

* Rain latest hour (hover to see other rain measurements)
** Current wind speed in m/s (hover to see current wind gust speed)